sensor_id;sensor_type;location;lat;lon;timestamp;pressure;altitude;pressure_sealevel;temperature;humidity
33265;BME280;31404;53.974;-1.086;2022-07-06T00:00:35;102553.56;;;12.94;78.62
33265;BME280;31404;53.974;-1.086;2022-07-06T00:05:35;102554.03;;;12.06;86.51
33265;BME280;31404;53.974;-1.086;2022-07-06T00:10:35;102559.68;;;11.17;91.62
33265;BME280;31404;53.974;-1.086;2022-07-06T00:15:36;102551.92;;;11.91;89.68
33265;BME280;31404;53.974;-1.086;2022-07-06T00:20:35;102563.27;;;10.64;99.04
33265;BME280;31404;53.974;-1.086;2022-07-06T00:25:35;102559.10;;;10.84;98.31
33265;BME280;31404;53.974;-1.086;2022-07-06T00:30:35;102551.95;;;10.64;100.00
33265;BME280;31404;53.974;-1.086;2022-07-06T00:35:36;102555.64;;;11.64;94.18
33265;BME280;31404;53.974;-1.086;2022-07-06T00:40:35;102561.52;;;11.08;98.70
33265;BME280;31404;53.974;-1.086;2022-07-06T00:45:35;102539.15;;;12.44;91.71
33265;BME280;31404;53.974;-1.086;2022-07-06T00:50:35;102527.64;;;13.59;84.96
33265;BME280;31404;53.974;-1.086;2022-07-06T00:55:38;102530.22;;;12.78;87.95
33265;BME280;31404;53.974;-1.086;2022-07-06T01:00:36;102524.47;;;13.15;86.21
33265;BME280;31404;53.974;-1.086;2022-07-06T01:05:35;102519.56;;;13.80;82.94
33265;BME280;31404;53.974;-1.086;2022-07-06T01:10:35;102517.09;;;13.51;82.49
33265;BME280;31404;53.974;-1.086;2022-07-06T01:15:36;102516.62;;;13.24;85.85
33265;BME280;31404;53.974;-1.086;2022-07-06T01:20:35;102510.46;;;14.77;79.76
33265;BME280;31404;53.974;-1.086;2022-07-06T01:25:35;102505.58;;;14.40;81.41
33265;BME280;31404;53.974;-1.086;2022-07-06T01:30:35;102506.69;;;14.64;81.11
33265;BME280;31404;53.974;-1.086;2022-07-06T01:35:36;102508.30;;;13.54;85.16
33265;BME280;31404;53.974;-1.086;2022-07-06T01:40:35;102506.08;;;14.83;81.25
33265;BME280;31404;53.974;-1.086;2022-07-06T01:45:35;102507.68;;;14.15;82.83
33265;BME280;31404;53.974;-1.086;2022-07-06T01:50:35;102503.40;;;15.18;78.76
33265;BME280;31404;53.974;-1.086;2022-07-06T01:55:35;102507.86;;;14.90;78.54
33265;BME280;31404;53.974;-1.086;2022-07-06T02:00:36;102483.04;;;15.87;75.65
33265;BME280;31404;53.974;-1.086;2022-07-06T02:05:34;102484.25;;;15.30;79.31
33265;BME280;31404;53.974;-1.086;2022-07-06T02:10:35;102465.51;;;14.17;83.42
33265;BME280;31404;53.974;-1.086;2022-07-06T02:15:36;102459.14;;;14.37;83.16
33265;BME280;31404;53.974;-1.086;2022-07-06T02:20:35;102448.97;;;14.99;80.64
33265;BME280;31404;53.974;-1.086;2022-07-06T02:25:35;102442.05;;;14.79;80.52
33265;BME280;31404;53.974;-1.086;2022-07-06T02:30:35;102428.21;;;15.98;75.32
33265;BME280;31404;53.974;-1.086;2022-07-06T02:35:35;102432.01;;;14.38;83.24
33265;BME280;31404;53.974;-1.086;2022-07-06T02:40:35;102425.26;;;15.16;80.62
33265;BME280;31404;53.974;-1.086;2022-07-06T02:45:35;102422.16;;;15.82;77.18
33265;BME280;31404;53.974;-1.086;2022-07-06T02:50:35;102423.58;;;16.32;75.68
33265;BME280;31404;53.974;-1.086;2022-07-06T02:55:35;102430.06;;;15.03;80.91
33265;BME280;31404;53.974;-1.086;2022-07-06T03:00:35;102428.14;;;15.31;81.60
33265;BME280;31404;53.974;-1.086;2022-07-06T03:05:35;102423.73;;;15.43;82.60
33265;BME280;31404;53.974;-1.086;2022-07-06T03:10:35;102430.60;;;15.20;83.36
33265;BME280;31404;53.974;-1.086;2022-07-06T03:15:36;102428.24;;;14.97;84.86
33265;BME280;31404;53.974;-1.086;2022-07-06T03:20:35;102431.09;;;13.99;90.25
33265;BME280;31404;53.974;-1.086;2022-07-06T03:25:35;102429.78;;;14.51;88.87
33265;BME280;31404;53.974;-1.086;2022-07-06T03:30:36;102426.91;;;14.56;87.98
33265;BME280;31404;53.974;-1.086;2022-07-06T03:35:34;102431.03;;;14.35;88.85
33265;BME280;31404;53.974;-1.086;2022-07-06T03:40:35;102424.73;;;14.76;88.18
33265;BME280;31404;53.974;-1.086;2022-07-06T03:45:35;102415.55;;;13.87;93.24
33265;BME280;31404;53.974;-1.086;2022-07-06T03:50:36;102416.96;;;14.90;89.31
33265;BME280;31404;53.974;-1.086;2022-07-06T03:55:35;102419.90;;;16.23;83.78
33265;BME280;31404;53.974;-1.086;2022-07-06T04:00:35;102425.21;;;14.63;94.25
33265;BME280;31404;53.974;-1.086;2022-07-06T04:05:35;102419.99;;;14.30;94.61
33265;BME280;31404;53.974;-1.086;2022-07-06T04:10:36;102418.52;;;13.39;100.00
33265;BME280;31404;53.974;-1.086;2022-07-06T04:15:35;102411.51;;;13.05;100.00
33265;BME280;31404;53.974;-1.086;2022-07-06T04:20:35;102417.28;;;12.93;100.00
33265;BME280;31404;53.974;-1.086;2022-07-06T04:25:36;102422.88;;;14.11;100.00
33265;BME280;31404;53.974;-1.086;2022-07-06T04:30:35;102420.85;;;13.49;100.00
33265;BME280;31404;53.974;-1.086;2022-07-06T04:35:35;102427.40;;;14.15;98.69
33265;BME280;31404;53.974;-1.086;2022-07-06T04:40:35;102429.29;;;14.81;95.35
33265;BME280;31404;53.974;-1.086;2022-07-06T04:45:35;102427.69;;;13.13;100.00
33265;BME280;31404;53.974;-1.086;2022-07-06T04:50:35;102426.50;;;14.82;94.65
33265;BME280;31404;53.974;-1.086;2022-07-06T04:55:35;102421.28;;;14.97;91.99
33265;BME280;31404;53.974;-1.086;2022-07-06T05:00:35;102416.77;;;15.55;89.61
33265;BME280;31404;53.974;-1.086;2022-07-06T05:05:36;102419.51;;;14.69;94.97
33265;BME280;31404;53.974;-1.086;2022-07-06T05:10:35;102420.59;;;12.93;100.00
33265;BME280;31404;53.974;-1.086;2022-07-06T05:15:35;102410.61;;;12.56;100.00
33265;BME280;31404;53.974;-1.086;2022-07-06T05:20:35;102402.03;;;13.80;100.00
33265;BME280;31404;53.974;-1.086;2022-07-06T05:25:37;102394.60;;;13.97;100.00
33265;BME280;31404;53.974;-1.086;2022-07-06T05:30:36;102392.47;;;13.56;100.00
33265;BME280;31404;53.974;-1.086;2022-07-06T05:35:35;102405.63;;;13.43;100.00
33265;BME280;31404;53.974;-1.086;2022-07-06T05:40:35;102411.27;;;13.88;100.00
33265;BME280;31404;53.974;-1.086;2022-07-06T05:45:35;102409.21;;;15.09;93.29
33265;BME280;31404;53.974;-1.086;2022-07-06T05:50:35;102401.38;;;13.52;100.00
33265;BME280;31404;53.974;-1.086;2022-07-06T05:55:35;102406.78;;;14.00;100.00
33265;BME280;31404;53.974;-1.086;2022-07-06T06:00:36;102408.33;;;13.97;100.00
33265;BME280;31404;53.974;-1.086;2022-07-06T06:05:35;102407.36;;;13.65;100.00
33265;BME280;31404;53.974;-1.086;2022-07-06T06:10:35;102403.16;;;14.07;100.00
33265;BME280;31404;53.974;-1.086;2022-07-06T06:15:36;102410.56;;;13.85;100.00
33265;BME280;31404;53.974;-1.086;2022-07-06T06:20:36;102415.82;;;14.05;100.00
33265;BME280;31404;53.974;-1.086;2022-07-06T06:25:36;102409.84;;;13.41;100.00
33265;BME280;31404;53.974;-1.086;2022-07-06T06:30:36;102423.16;;;13.66;100.00
33265;BME280;31404;53.974;-1.086;2022-07-06T06:35:36;102425.69;;;13.02;100.00
33265;BME280;31404;53.974;-1.086;2022-07-06T06:40:35;102429.79;;;13.08;100.00
33265;BME280;31404;53.974;-1.086;2022-07-06T06:45:35;102428.11;;;13.21;100.00
33265;BME280;31404;53.974;-1.086;2022-07-06T06:50:35;102425.51;;;12.27;100.00
33265;BME280;31404;53.974;-1.086;2022-07-06T06:55:35;102412.06;;;12.34;100.00
33265;BME280;31404;53.974;-1.086;2022-07-06T07:00:35;102402.55;;;13.71;100.00
33265;BME280;31404;53.974;-1.086;2022-07-06T07:05:36;102390.00;;;13.37;100.00
33265;BME280;31404;53.974;-1.086;2022-07-06T07:10:35;102410.88;;;13.44;100.00
33265;BME280;31404;53.974;-1.086;2022-07-06T07:15:35;102408.19;;;13.28;100.00
33265;BME280;31404;53.974;-1.086;2022-07-06T07:20:35;102406.91;;;13.00;100.00
33265;BME280;31404;53.974;-1.086;2022-07-06T07:25:35;102410.27;;;13.13;100.00
33265;BME280;31404;53.974;-1.086;2022-07-06T07:30:35;102407.34;;;13.58;100.00
33265;BME280;31404;53.974;-1.086;2022-07-06T07:35:35;102427.54;;;13.19;100.00
33265;BME280;31404;53.974;-1.086;2022-07-06T07:40:34;102425.61;;;12.93;100.00
33265;BME280;31404;53.974;-1.086;2022-07-06T07:45:35;102432.05;;;12.88;100.00
33265;BME280;31404;53.974;-1.086;2022-07-06T07:50:35;102429.97;;;12.37;100.00
33265;BME280;31404;53.974;-1.086;2022-07-06T07:55:35;102421.43;;;13.52;100.00
33265;BME280;31404;53.974;-1.086;2022-07-06T08:00:35;102418.69;;;13.65;100.00
33265;BME280;31404;53.974;-1.086;2022-07-06T08:05:35;102420.63;;;12.98;100.00
33265;BME280;31404;53.974;-1.086;2022-07-06T08:10:36;102425.59;;;11.57;100.00
33265;BME280;31404;53.974;-1.086;2022-07-06T08:15:35;102424.31;;;12.13;100.00
33265;BME280;31404;53.974;-1.086;2022-07-06T08:20:35;102421.84;;;13.00;100.00
33265;BME280;31404;53.974;-1.086;2022-07-06T08:25:35;102411.58;;;12.81;100.00
33265;BME280;31404;53.974;-1.086;2022-07-06T08:30:36;102421.42;;;12.98;100.00
33265;BME280;31404;53.974;-1.086;2022-07-06T08:35:35;102408.18;;;13.06;100.00
33265;BME280;31404;53.974;-1.086;2022-07-06T08:40:36;102409.06;;;13.68;100.00
33265;BME280;31404;53.974;-1.086;2022-07-06T08:45:35;102408.62;;;13.97;100.00
33265;BME280;31404;53.974;-1.086;2022-07-06T08:50:35;102398.57;;;13.83;100.00
33265;BME280;31404;53.974;-1.086;2022-07-06T08:55:36;102400.31;;;13.01;100.00
33265;BME280;31404;53.974;-1.086;2022-07-06T09:00:36;102401.89;;;13.52;100.00
33265;BME280;31404;53.974;-1.086;2022-07-06T09:05:36;102395.82;;;13.37;99.49
33265;BME280;31404;53.974;-1.086;2022-07-06T09:10:35;102390.60;;;15.02;93.09
33265;BME280;31404;53.974;-1.086;2022-07-06T09:15:37;102394.32;;;14.23;95.09
33265;BME280;31404;53.974;-1.086;2022-07-06T09:20:34;102397.19;;;13.88;96.95
33265;BME280;31404;53.974;-1.086;2022-07-06T09:25:35;102399.17;;;13.19;100.00
33265;BME280;31404;53.974;-1.086;2022-07-06T09:30:36;102409.21;;;14.37;94.66
33265;BME280;31404;53.974;-1.086;2022-07-06T09:35:37;102419.73;;;13.17;100.00
33265;BME280;31404;53.974;-1.086;2022-07-06T09:40:36;102409.31;;;13.60;100.00
33265;BME280;31404;53.974;-1.086;2022-07-06T09:45:37;102419.77;;;13.01;100.00
33265;BME280;31404;53.974;-1.086;2022-07-06T09:55:35;102407.01;;;13.86;95.59
33265;BME280;31404;53.974;-1.086;2022-07-06T10:00:35;102423.64;;;14.27;92.46
33265;BME280;31404;53.974;-1.086;2022-07-06T10:05:37;102414.18;;;12.61;100.00
33265;BME280;31404;53.974;-1.086;2022-07-06T10:10:36;102424.02;;;12.82;100.00
33265;BME280;31404;53.974;-1.086;2022-07-06T10:15:37;102421.00;;;14.15;92.71
33265;BME280;31404;53.974;-1.086;2022-07-06T10:20:36;102425.19;;;13.29;96.02
33265;BME280;31404;53.974;-1.086;2022-07-06T10:25:35;102421.08;;;13.77;94.05
33265;BME280;31404;53.974;-1.086;2022-07-06T10:30:35;102413.47;;;14.65;88.66
33265;BME280;31404;53.974;-1.086;2022-07-06T10:35:35;102419.55;;;14.88;87.46
33265;BME280;31404;53.974;-1.086;2022-07-06T10:40:36;102433.58;;;15.01;86.22
33265;BME280;31404;53.974;-1.086;2022-07-06T10:50:36;102406.73;;;14.48;87.22
33265;BME280;31404;53.974;-1.086;2022-07-06T10:55:37;102410.78;;;12.85;94.00
33265;BME280;31404;53.974;-1.086;2022-07-06T11:20:35;102395.00;;;15.39;79.70
33265;BME280;31404;53.974;-1.086;2022-07-06T11:25:35;102381.83;;;15.37;82.66
33265;BME280;31404;53.974;-1.086;2022-07-06T11:30:35;102380.94;;;15.26;82.58
33265;BME280;31404;53.974;-1.086;2022-07-06T11:35:35;102372.75;;;13.20;91.52
33265;BME280;31404;53.974;-1.086;2022-07-06T11:40:37;102370.52;;;14.42;86.18
33265;BME280;31404;53.974;-1.086;2022-07-06T11:45:35;102372.36;;;15.11;83.23
33265;BME280;31404;53.974;-1.086;2022-07-06T11:50:35;102375.60;;;14.03;87.15
33265;BME280;31404;53.974;-1.086;2022-07-06T11:55:35;102377.78;;;13.92;89.75
33265;BME280;31404;53.974;-1.086;2022-07-06T12:00:35;102379.14;;;15.45;83.65
33265;BME280;31404;53.974;-1.086;2022-07-06T12:05:35;102392.06;;;13.70;89.26
33265;BME280;31404;53.974;-1.086;2022-07-06T12:10:35;102374.90;;;14.26;89.26
33265;BME280;31404;53.974;-1.086;2022-07-06T12:15:36;102366.28;;;14.14;88.45
33265;BME280;31404;53.974;-1.086;2022-07-06T12:20:35;102367.66;;;13.34;91.91
33265;BME280;31404;53.974;-1.086;2022-07-06T12:25:36;102350.35;;;13.44;93.82
33265;BME280;31404;53.974;-1.086;2022-07-06T12:35:35;102340.31;;;13.57;93.65
33265;BME280;31404;53.974;-1.086;2022-07-06T12:40:36;102368.66;;;12.77;96.58
33265;BME280;31404;53.974;-1.086;2022-07-06T12:45:35;102361.93;;;13.00;96.16
33265;BME280;31404;53.974;-1.086;2022-07-06T12:50:36;102353.70;;;14.23;91.61
33265;BME280;31404;53.974;-1.086;2022-07-06T12:55:36;102352.04;;;13.99;92.18
33265;BME280;31404;53.974;-1.086;2022-07-06T13:05:35;102339.29;;;14.05;91.90
33265;BME280;31404;53.974;-1.086;2022-07-06T13:10:35;102334.07;;;13.63;96.50
33265;BME280;31404;53.974;-1.086;2022-07-06T13:15:36;102330.31;;;13.67;96.62
33265;BME280;31404;53.974;-1.086;2022-07-06T13:20:35;102335.60;;;13.49;95.95
33265;BME280;31404;53.974;-1.086;2022-07-06T13:25:35;102326.08;;;12.96;96.76
33265;BME280;31404;53.974;-1.086;2022-07-06T13:30:36;102330.55;;;13.52;94.75
33265;BME280;31404;53.974;-1.086;2022-07-06T13:35:35;102323.06;;;14.37;91.98
33265;BME280;31404;53.974;-1.086;2022-07-06T13:40:35;102315.78;;;14.21;91.89
33265;BME280;31404;53.974;-1.086;2022-07-06T13:45:35;102316.10;;;13.53;94.46
33265;BME280;31404;53.974;-1.086;2022-07-06T13:50:34;102313.70;;;13.81;94.65
33265;BME280;31404;53.974;-1.086;2022-07-06T13:55:35;102308.73;;;13.26;96.41
33265;BME280;31404;53.974;-1.086;2022-07-06T14:00:36;102304.16;;;13.24;98.44
33265;BME280;31404;53.974;-1.086;2022-07-06T14:05:35;102303.80;;;13.59;96.91
33265;BME280;31404;53.974;-1.086;2022-07-06T14:10:36;102294.94;;;13.24;98.52
33265;BME280;31404;53.974;-1.086;2022-07-06T14:15:35;102299.92;;;13.27;97.35
33265;BME280;31404;53.974;-1.086;2022-07-06T14:20:36;102287.07;;;13.27;96.25
33265;BME280;31404;53.974;-1.086;2022-07-06T14:25:36;102277.75;;;13.59;97.02
33265;BME280;31404;53.974;-1.086;2022-07-06T14:30:36;102292.75;;;13.65;94.74
33265;BME280;31404;53.974;-1.086;2022-07-06T14:35:36;102281.65;;;13.09;98.90
33265;BME280;31404;53.974;-1.086;2022-07-06T14:40:36;102286.63;;;12.76;100.00
33265;BME280;31404;53.974;-1.086;2022-07-06T14:45:35;102279.73;;;14.06;95.25
33265;BME280;31404;53.974;-1.086;2022-07-06T14:50:35;102279.59;;;13.40;98.45
33265;BME280;31404;53.974;-1.086;2022-07-06T14:55:29;102290.68;;;14.01;96.19
33265;BME280;31404;53.974;-1.086;2022-07-06T15:00:35;102284.62;;;13.16;100.00
33265;BME280;31404;53.974;-1.086;2022-07-06T15:05:36;102301.89;;;14.16;94.97
33265;BME280;31404;53.974;-1.086;2022-07-06T15:10:35;102298.95;;;13.36;99.64
33265;BME280;31404;53.974;-1.086;2022-07-06T15:15:36;102286.62;;;12.88;100.00
33265;BME280;31404;53.974;-1.086;2022-07-06T15:20:36;102292.95;;;12.64;100.00
33265;BME280;31404;53.974;-1.086;2022-07-06T15:25:36;102291.24;;;12.97;100.00
33265;BME280;31404;53.974;-1.086;2022-07-06T15:30:35;102281.86;;;13.72;96.63
33265;BME280;31404;53.974;-1.086;2022-07-06T15:35:35;102286.54;;;13.38;96.95
33265;BME280;31404;53.974;-1.086;2022-07-06T15:45:35;102287.01;;;13.33;98.03
33265;BME280;31404;53.974;-1.086;2022-07-06T15:50:35;102286.92;;;13.60;97.58
33265;BME280;31404;53.974;-1.086;2022-07-06T15:55:35;102282.57;;;13.42;97.92
33265;BME280;31404;53.974;-1.086;2022-07-06T16:00:35;102258.99;;;14.51;90.97
33265;BME280;31404;53.974;-1.086;2022-07-06T16:05:36;102255.48;;;13.41;97.30
33265;BME280;31404;53.974;-1.086;2022-07-06T16:10:35;102247.89;;;13.43;99.18
33265;BME280;31404;53.974;-1.086;2022-07-06T16:15:36;102231.49;;;13.33;98.37
33265;BME280;31404;53.974;-1.086;2022-07-06T16:20:35;102219.55;;;14.58;92.42
33265;BME280;31404;53.974;-1.086;2022-07-06T16:25:35;102219.54;;;13.20;98.87
33265;BME280;31404;53.974;-1.086;2022-07-06T16:30:35;102216.01;;;13.77;95.67
33265;BME280;31404;53.974;-1.086;2022-07-06T16:35:35;102205.84;;;13.96;94.89
33265;BME280;31404;53.974;-1.086;2022-07-06T16:40:35;102203.45;;;12.60;100.00
33265;BME280;31404;53.974;-1.086;2022-07-06T16:45:36;102207.06;;;13.14;99.76
33265;BME280;31404;53.974;-1.086;2022-07-06T16:50:36;102203.85;;;14.81;91.58
33265;BME280;31404;53.974;-1.086;2022-07-06T16:55:35;102202.83;;;13.58;97.03
33265;BME280;31404;53.974;-1.086;2022-07-06T17:00:35;102193.44;;;14.21;93.92
33265;BME280;31404;53.974;-1.086;2022-07-06T17:05:36;102193.51;;;13.61;96.63
33265;BME280;31404;53.974;-1.086;2022-07-06T17:10:35;102183.90;;;13.59;96.23
33265;BME280;31404;53.974;-1.086;2022-07-06T17:15:36;102166.88;;;14.02;95.32
33265;BME280;31404;53.974;-1.086;2022-07-06T17:25:35;102144.59;;;13.62;94.46
33265;BME280;31404;53.974;-1.086;2022-07-06T17:30:35;102120.33;;;13.76;94.61
33265;BME280;31404;53.974;-1.086;2022-07-06T17:35:36;102116.10;;;14.06;93.43
33265;BME280;31404;53.974;-1.086;2022-07-06T17:40:35;102112.22;;;13.66;95.60
33265;BME280;31404;53.974;-1.086;2022-07-06T17:45:35;102107.97;;;13.91;95.01
33265;BME280;31404;53.974;-1.086;2022-07-06T17:50:35;102102.98;;;13.94;94.69
33265;BME280;31404;53.974;-1.086;2022-07-06T17:55:35;102112.09;;;14.23;92.78
33265;BME280;31404;53.974;-1.086;2022-07-06T18:00:35;102132.21;;;13.76;94.56
33265;BME280;31404;53.974;-1.086;2022-07-06T18:05:36;102126.92;;;13.76;95.51
33265;BME280;31404;53.974;-1.086;2022-07-06T18:10:35;102128.70;;;13.06;100.00
33265;BME280;31404;53.974;-1.086;2022-07-06T18:15:29;102117.32;;;13.49;98.00
33265;BME280;31404;53.974;-1.086;2022-07-06T18:20:35;102108.35;;;13.47;98.29
33265;BME280;31404;53.974;-1.086;2022-07-06T18:25:35;102111.79;;;13.56;97.47
33265;BME280;31404;53.974;-1.086;2022-07-06T18:30:35;102106.54;;;14.18;94.98
33265;BME280;31404;53.974;-1.086;2022-07-06T18:35:35;102085.42;;;13.31;98.01
33265;BME280;31404;53.974;-1.086;2022-07-06T18:40:35;102099.31;;;12.80;100.00
33265;BME280;31404;53.974;-1.086;2022-07-06T18:45:35;102093.71;;;12.78;100.00
33265;BME280;31404;53.974;-1.086;2022-07-06T18:50:35;102081.70;;;13.53;98.65
33265;BME280;31404;53.974;-1.086;2022-07-06T18:55:29;102075.86;;;12.81;100.00
33265;BME280;31404;53.974;-1.086;2022-07-06T19:00:35;102069.70;;;12.57;100.00
33265;BME280;31404;53.974;-1.086;2022-07-06T19:05:36;102051.82;;;13.19;100.00
33265;BME280;31404;53.974;-1.086;2022-07-06T19:10:35;102061.62;;;12.59;100.00
33265;BME280;31404;53.974;-1.086;2022-07-06T19:15:35;102060.62;;;12.60;100.00
33265;BME280;31404;53.974;-1.086;2022-07-06T19:20:35;102072.43;;;12.85;100.00
33265;BME280;31404;53.974;-1.086;2022-07-06T19:25:35;102072.24;;;12.90;100.00
33265;BME280;31404;53.974;-1.086;2022-07-06T19:30:36;102056.15;;;12.74;100.00
33265;BME280;31404;53.974;-1.086;2022-07-06T19:35:35;102043.98;;;12.91;100.00
33265;BME280;31404;53.974;-1.086;2022-07-06T19:40:35;102058.76;;;12.88;100.00
33265;BME280;31404;53.974;-1.086;2022-07-06T19:45:35;102060.19;;;12.66;100.00
33265;BME280;31404;53.974;-1.086;2022-07-06T19:50:36;102072.63;;;14.04;100.00
33265;BME280;31404;53.974;-1.086;2022-07-06T19:55:35;102078.27;;;12.95;100.00
33265;BME280;31404;53.974;-1.086;2022-07-06T20:00:35;102043.98;;;12.91;100.00
33265;BME280;31404;53.974;-1.086;2022-07-06T20:05:35;102039.58;;;13.45;100.00
33265;BME280;31404;53.974;-1.086;2022-07-06T20:15:36;102047.65;;;13.12;100.00
33265;BME280;31404;53.974;-1.086;2022-07-06T20:20:35;102073.40;;;12.57;100.00
33265;BME280;31404;53.974;-1.086;2022-07-06T20:25:35;102065.41;;;13.21;100.00
33265;BME280;31404;53.974;-1.086;2022-07-06T20:30:35;102100.08;;;12.05;100.00
33265;BME280;31404;53.974;-1.086;2022-07-06T20:35:36;102101.33;;;12.69;100.00
33265;BME280;31404;53.974;-1.086;2022-07-06T20:40:35;102089.66;;;12.23;100.00
33265;BME280;31404;53.974;-1.086;2022-07-06T20:45:35;102090.15;;;11.86;100.00
33265;BME280;31404;53.974;-1.086;2022-07-06T20:50:35;102106.16;;;11.70;100.00
33265;BME280;31404;53.974;-1.086;2022-07-06T20:55:34;102136.50;;;11.68;100.00
33265;BME280;31404;53.974;-1.086;2022-07-06T21:00:35;102145.47;;;12.26;100.00
33265;BME280;31404;53.974;-1.086;2022-07-06T21:05:35;102111.67;;;12.05;100.00
33265;BME280;31404;53.974;-1.086;2022-07-06T21:10:35;102118.81;;;11.91;100.00
33265;BME280;31404;53.974;-1.086;2022-07-06T21:15:36;102163.55;;;12.64;100.00
33265;BME280;31404;53.974;-1.086;2022-07-06T21:20:35;102149.32;;;12.28;100.00
33265;BME280;31404;53.974;-1.086;2022-07-06T21:25:36;102145.67;;;12.07;100.00
33265;BME280;31404;53.974;-1.086;2022-07-06T21:30:35;102171.23;;;12.39;100.00
33265;BME280;31404;53.974;-1.086;2022-07-06T21:35:35;102189.91;;;12.23;100.00
33265;BME280;31404;53.974;-1.086;2022-07-06T21:40:35;102192.17;;;12.61;100.00
33265;BME280;31404;53.974;-1.086;2022-07-06T21:45:35;102202.09;;;13.49;95.89
33265;BME280;31404;53.974;-1.086;2022-07-06T21:50:35;102167.44;;;14.08;88.09
33265;BME280;31404;53.974;-1.086;2022-07-06T21:55:35;102203.85;;;13.20;90.99
33265;BME280;31404;53.974;-1.086;2022-07-06T22:00:36;102230.05;;;14.04;85.25
33265;BME280;31404;53.974;-1.086;2022-07-06T22:05:35;102229.10;;;13.64;85.97
33265;BME280;31404;53.974;-1.086;2022-07-06T22:10:35;102226.10;;;13.71;85.01
33265;BME280;31404;53.974;-1.086;2022-07-06T22:15:36;102223.87;;;13.66;84.37
33265;BME280;31404;53.974;-1.086;2022-07-06T22:20:36;102233.83;;;13.60;83.51
33265;BME280;31404;53.974;-1.086;2022-07-06T22:25:35;102219.48;;;11.36;94.06
33265;BME280;31404;53.974;-1.086;2022-07-06T22:30:35;102223.55;;;11.83;93.17
33265;BME280;31404;53.974;-1.086;2022-07-06T22:35:35;102245.01;;;13.29;87.62
33265;BME280;31404;53.974;-1.086;2022-07-06T22:40:35;102259.58;;;13.04;87.85
33265;BME280;31404;53.974;-1.086;2022-07-06T22:45:35;102257.92;;;11.66;93.12
33265;BME280;31404;53.974;-1.086;2022-07-06T22:50:36;102257.48;;;12.63;90.63
33265;BME280;31404;53.974;-1.086;2022-07-06T22:55:35;102253.02;;;13.93;84.21
33265;BME280;31404;53.974;-1.086;2022-07-06T23:00:36;102257.84;;;13.10;88.29
33265;BME280;31404;53.974;-1.086;2022-07-06T23:05:35;102257.61;;;13.33;86.28
33265;BME280;31404;53.974;-1.086;2022-07-06T23:10:36;102266.46;;;11.26;95.73
33265;BME280;31404;53.974;-1.086;2022-07-06T23:15:35;102262.79;;;10.92;100.00
33265;BME280;31404;53.974;-1.086;2022-07-06T23:20:35;102269.81;;;11.17;100.00
33265;BME280;31404;53.974;-1.086;2022-07-06T23:25:35;102263.43;;;11.90;96.49
33265;BME280;31404;53.974;-1.086;2022-07-06T23:30:36;102266.77;;;11.29;99.64
33265;BME280;31404;53.974;-1.086;2022-07-06T23:35:35;102280.47;;;11.88;94.68
33265;BME280;31404;53.974;-1.086;2022-07-06T23:40:36;102287.61;;;13.11;90.41
33265;BME280;31404;53.974;-1.086;2022-07-06T23:45:35;102295.04;;;12.75;90.32
33265;BME280;31404;53.974;-1.086;2022-07-06T23:50:35;102297.05;;;11.91;94.44
